createdAt,value
2023-02-18T00:01:33.300Z,11.20
2023-02-18T00:04:00.997Z,11.30
2023-02-18T00:06:34.322Z,11.20
2023-02-18T00:09:02.376Z,11.30
2023-02-18T00:11:32.023Z,11.30
2023-02-18T00:14:01.613Z,11.30
2023-02-18T00:16:29.881Z,11.30
2023-02-18T00:19:02.756Z,11.30
2023-02-18T00:21:29.839Z,11.30
2023-02-18T00:23:56.605Z,11.30
2023-02-18T00:26:24.059Z,11.30
2023-02-18T00:28:54.344Z,11.30
2023-02-18T00:31:24.377Z,11.30
2023-02-18T00:33:51.695Z,11.30
2023-02-18T00:36:19.656Z,11.30
2023-02-18T00:39:01.829Z,11.30
2023-02-18T00:41:29.440Z,11.30
2023-02-18T00:43:56.579Z,11.30
2023-02-18T00:46:25.018Z,11.20
2023-02-18T00:48:51.783Z,11.20
2023-02-18T00:51:18.461Z,11.30
2023-02-18T00:53:45.425Z,11.20
2023-02-18T00:56:12.176Z,11.20
2023-02-18T00:58:39.530Z,11.30
2023-02-18T01:01:07.876Z,11.20
2023-02-18T01:03:39.131Z,11.20
2023-02-18T01:06:07.719Z,11.30
2023-02-18T01:08:35.913Z,11.30
2023-02-18T01:11:03.865Z,11.30
2023-02-18T01:13:31.475Z,11.20
2023-02-18T01:15:58.343Z,11.30
2023-02-18T01:18:26.480Z,11.20
2023-02-18T01:20:53.674Z,11.20
2023-02-18T01:23:20.690Z,11.20
2023-02-18T01:25:47.359Z,11.20
2023-02-18T01:28:15.391Z,11.10
2023-02-18T01:30:42.408Z,11.10
2023-02-18T01:33:09.803Z,11.10
2023-02-18T01:35:41.406Z,11.10
2023-02-18T01:38:09.059Z,11.10
2023-02-18T01:40:43.547Z,11.10
2023-02-18T01:43:12.240Z,11.10
2023-02-18T01:45:51.159Z,11.10
2023-02-18T01:48:26.808Z,11.20
2023-02-18T01:51:00.159Z,11.20
2023-02-18T01:53:31.827Z,11.10
2023-02-18T01:56:00.231Z,11.10
2023-02-18T01:58:27.009Z,11.10
2023-02-18T02:00:53.720Z,11.10
2023-02-18T02:03:20.383Z,11.10
2023-02-18T02:05:47.128Z,11.10
2023-02-18T02:08:14.006Z,11.10
2023-02-18T02:11:02.725Z,11.00
2023-02-18T02:14:02.979Z,11.00
2023-02-18T02:17:03.381Z,11.00
2023-02-18T02:19:57.934Z,10.90
2023-02-18T02:22:52.410Z,10.90
2023-02-18T02:25:54.037Z,11.00
2023-02-18T02:28:39.245Z,11.00
2023-02-18T02:31:17.903Z,11.00
2023-02-18T02:34:11.057Z,10.90
2023-02-18T02:37:09.823Z,10.90
2023-02-18T02:40:02.917Z,10.90
2023-02-18T02:42:51.943Z,11.00
2023-02-18T02:45:33.985Z,10.90
2023-02-18T02:48:15.885Z,11.00
2023-02-18T02:50:51.756Z,10.90
2023-02-18T02:53:30.243Z,11.00
2023-02-18T02:55:57.067Z,11.00
2023-02-18T02:58:23.746Z,11.00
2023-02-18T03:01:21.101Z,11.00
2023-02-18T03:04:06.675Z,11.00
2023-02-18T03:07:00.959Z,11.00
2023-02-18T03:09:55.265Z,11.00
2023-02-18T03:12:56.653Z,11.00
2023-02-18T03:15:36.667Z,11.00
2023-02-18T03:18:20.629Z,11.00
2023-02-18T03:21:01.074Z,11.00
2023-02-18T03:23:32.638Z,11.00
2023-02-18T03:26:00.015Z,11.00
2023-02-18T03:28:32.093Z,11.10
2023-02-18T03:31:13.068Z,11.00
2023-02-18T03:33:46.443Z,11.00
2023-02-18T03:36:13.388Z,11.00
2023-02-18T03:38:50.226Z,11.00
2023-02-18T03:41:17.099Z,11.10
2023-02-18T03:43:55.310Z,11.10
2023-02-18T03:46:22.111Z,11.00
2023-02-18T03:48:48.817Z,11.00
2023-02-18T03:51:15.730Z,11.10
2023-02-18T03:53:42.373Z,11.10
2023-02-18T03:56:09.446Z,11.10
2023-02-18T03:58:36.292Z,11.10
2023-02-18T04:01:03.715Z,11.10
2023-02-18T04:03:30.776Z,11.10
2023-02-18T04:05:57.638Z,11.10
2023-02-18T04:08:25.136Z,11.10
2023-02-18T04:10:51.879Z,11.10
2023-02-18T04:13:19.040Z,11.10
2023-02-18T04:15:45.753Z,11.10
2023-02-18T04:18:12.750Z,11.10
2023-02-18T04:20:39.420Z,11.10
2023-02-18T04:23:06.067Z,11.10
2023-02-18T04:25:33.416Z,11.10
2023-02-18T04:28:00.124Z,11.10
2023-02-18T04:30:27.166Z,11.10
2023-02-18T04:32:53.878Z,11.10
2023-02-18T04:35:20.792Z,11.10
2023-02-18T04:37:47.483Z,11.10
2023-02-18T04:40:14.409Z,11.10
2023-02-18T04:42:41.115Z,11.10
2023-02-18T04:45:08.300Z,11.10
2023-02-18T04:47:35.058Z,11.10
2023-02-18T04:50:01.895Z,11.10
2023-02-18T04:52:28.588Z,11.10
2023-02-18T04:54:55.483Z,11.20
2023-02-18T04:57:22.204Z,11.10
2023-02-18T04:59:48.874Z,11.10
2023-02-18T05:02:15.593Z,11.10
2023-02-18T05:04:42.246Z,11.10
2023-02-18T05:07:08.904Z,11.20
2023-02-18T05:09:35.617Z,11.10
2023-02-18T05:12:02.268Z,11.20
2023-02-18T05:14:28.933Z,11.20
2023-02-18T05:16:55.769Z,11.20
2023-02-18T05:19:22.446Z,11.20
2023-02-18T05:21:49.153Z,11.20
2023-02-18T05:24:15.809Z,11.20
2023-02-18T05:26:42.594Z,11.20
2023-02-18T05:29:09.277Z,11.20
2023-02-18T05:31:36.012Z,11.30
2023-02-18T05:34:02.753Z,11.30
2023-02-18T05:36:29.432Z,11.30
2023-02-18T05:38:56.085Z,11.30
2023-02-18T05:41:22.853Z,11.30
2023-02-18T05:44:08.208Z,11.30
2023-02-18T05:46:35.082Z,11.30
2023-02-18T05:49:01.858Z,11.30
2023-02-18T05:51:28.580Z,11.30
2023-02-18T05:53:55.706Z,11.30
2023-02-18T05:56:22.739Z,11.30
2023-02-18T05:58:49.386Z,11.30
2023-02-18T06:01:16.042Z,11.30
2023-02-18T06:03:42.658Z,11.30
2023-02-18T06:06:09.999Z,11.30
2023-02-18T06:08:36.927Z,11.30
2023-02-18T06:11:04.089Z,11.30
2023-02-18T06:13:30.788Z,11.30
2023-02-18T06:15:57.530Z,11.30
2023-02-18T06:18:25.174Z,11.30
2023-02-18T06:20:51.949Z,11.30
2023-02-18T06:23:18.760Z,11.30
2023-02-18T06:25:45.413Z,11.40
2023-02-18T06:28:12.119Z,11.40
2023-02-18T06:30:38.971Z,11.40
2023-02-18T06:33:05.983Z,11.40
2023-02-18T06:35:32.810Z,11.40
2023-02-18T06:37:59.510Z,11.40
2023-02-18T06:40:26.349Z,11.40
2023-02-18T06:42:53.084Z,11.40
2023-02-18T06:45:19.756Z,11.40
2023-02-18T06:47:46.604Z,11.40
2023-02-18T06:50:13.967Z,11.40
2023-02-18T06:52:40.701Z,11.40
2023-02-18T06:55:09.550Z,11.40
2023-02-18T06:57:36.229Z,11.40
2023-02-18T07:00:03.878Z,11.50
2023-02-18T07:02:30.563Z,11.50
2023-02-18T07:04:57.376Z,11.40
2023-02-18T07:07:24.166Z,11.50
2023-02-18T07:09:50.822Z,11.50
2023-02-18T07:12:17.499Z,11.50
2023-02-18T07:14:44.265Z,11.50
2023-02-18T07:17:10.939Z,11.50
2023-02-18T07:19:37.719Z,11.50
2023-02-18T07:22:04.463Z,11.50
2023-02-18T07:24:31.074Z,11.50
2023-02-18T07:26:57.983Z,11.60
2023-02-18T07:29:24.773Z,11.60
2023-02-18T07:31:51.585Z,11.60
2023-02-18T07:34:18.344Z,11.60
2023-02-18T07:36:49.164Z,11.60
2023-02-18T07:39:18.169Z,11.60
2023-02-18T07:41:44.839Z,11.60
2023-02-18T07:44:11.495Z,11.60
2023-02-18T07:46:43.509Z,11.70
2023-02-18T07:49:11.391Z,11.70
2023-02-18T07:51:40.217Z,11.70
2023-02-18T07:54:06.972Z,11.70
2023-02-18T07:56:33.654Z,11.80
2023-02-18T07:59:00.571Z,11.80
2023-02-18T08:01:27.245Z,11.70
2023-02-18T08:03:54.027Z,11.80
2023-02-18T08:06:26.168Z,11.80
2023-02-18T08:08:52.781Z,11.80
2023-02-18T08:11:19.967Z,11.80
2023-02-18T08:13:48.399Z,11.80
2023-02-18T08:16:16.949Z,11.90
2023-02-18T08:18:44.146Z,11.90
2023-02-18T08:21:10.951Z,11.90
2023-02-18T08:23:37.567Z,11.90
2023-02-18T08:26:04.460Z,12.00
2023-02-18T08:28:31.331Z,12.00
2023-02-18T08:30:58.583Z,12.00
2023-02-18T08:33:25.845Z,12.00
2023-02-18T08:35:54.148Z,12.00
2023-02-18T08:38:22.210Z,12.00
2023-02-18T08:40:49.755Z,12.10
2023-02-18T08:43:18.466Z,12.10
2023-02-18T08:45:45.208Z,12.10
2023-02-18T08:48:19.360Z,12.10
2023-02-18T08:50:48.296Z,12.10
2023-02-18T08:53:15.577Z,12.10
2023-02-18T08:55:42.509Z,12.10
2023-02-18T08:58:09.817Z,12.20
2023-02-18T09:00:38.300Z,12.20
2023-02-18T09:03:05.482Z,12.20
2023-02-18T09:05:32.239Z,12.20
2023-02-18T09:07:59.009Z,12.10
2023-02-18T09:10:25.772Z,12.20
2023-02-18T09:12:52.457Z,12.20
2023-02-18T09:15:19.324Z,12.20
2023-02-18T09:17:46.247Z,12.20
2023-02-18T09:20:13.339Z,12.30
2023-02-18T09:22:40.389Z,12.30
2023-02-18T09:25:07.568Z,12.30
2023-02-18T09:27:34.232Z,12.30
2023-02-18T09:30:00.952Z,12.40
2023-02-18T09:32:35.561Z,12.40
2023-02-18T09:35:03.839Z,12.40
2023-02-18T09:37:31.029Z,12.50
2023-02-18T09:39:57.723Z,12.50
2023-02-18T09:42:31.011Z,12.50
2023-02-18T09:45:01.940Z,12.60
2023-02-18T09:47:40.300Z,12.60
2023-02-18T09:50:28.696Z,12.70
2023-02-18T09:52:58.329Z,12.70
2023-02-18T09:55:46.209Z,12.70
2023-02-18T09:58:19.482Z,12.80
2023-02-18T10:01:03.722Z,12.80
2023-02-18T10:03:31.932Z,12.90
2023-02-18T10:06:17.751Z,12.80
2023-02-18T10:08:49.293Z,12.90
2023-02-18T10:11:31.641Z,12.90
2023-02-18T10:14:01.028Z,12.90
2023-02-18T10:16:27.745Z,12.90
2023-02-18T10:19:09.766Z,12.90
2023-02-18T10:21:36.764Z,12.90
2023-02-18T10:24:28.367Z,12.90
2023-02-18T10:26:56.100Z,12.90
2023-02-18T10:29:24.538Z,12.90
2023-02-18T10:31:56.991Z,12.90
2023-02-18T10:34:49.781Z,12.90
2023-02-18T10:37:31.496Z,12.90
2023-02-18T10:40:03.676Z,13.00
2023-02-18T10:43:08.072Z,13.00
2023-02-18T10:46:09.525Z,13.00
2023-02-18T10:48:36.202Z,13.00
2023-02-18T10:51:28.301Z,13.10
2023-02-18T10:53:55.859Z,13.00
2023-02-18T10:56:40.809Z,13.10
2023-02-18T10:59:10.657Z,13.10
2023-02-18T11:01:37.803Z,13.10
2023-02-18T11:04:12.492Z,13.10
2023-02-18T11:06:46.848Z,13.10
2023-02-18T11:09:46.954Z,13.20
2023-02-18T11:12:47.397Z,13.20
2023-02-18T11:15:14.096Z,13.20
2023-02-18T11:17:42.752Z,13.20
2023-02-18T11:20:26.689Z,13.20
2023-02-18T11:22:58.226Z,13.30
2023-02-18T11:25:33.383Z,13.30
2023-02-18T11:28:18.421Z,13.30
2023-02-18T11:30:48.851Z,13.30
2023-02-18T11:33:21.371Z,13.30
2023-02-18T11:35:53.117Z,13.40
2023-02-18T11:38:33.157Z,13.40
2023-02-18T11:41:07.849Z,13.40
2023-02-18T11:43:35.387Z,13.50
2023-02-18T11:46:29.502Z,13.50
2023-02-18T11:48:56.693Z,13.50
2023-02-18T11:51:37.826Z,13.60
2023-02-18T11:54:20.366Z,13.60
2023-02-18T11:57:14.429Z,13.60
2023-02-18T11:59:42.600Z,13.70
2023-02-18T12:02:09.441Z,13.70
2023-02-18T12:04:56.124Z,13.70
2023-02-18T12:07:28.134Z,13.70
2023-02-18T12:10:10.809Z,13.80
2023-02-18T12:12:44.418Z,13.80
2023-02-18T12:15:18.254Z,13.80
2023-02-18T12:17:50.716Z,13.90
2023-02-18T12:20:46.810Z,13.90
2023-02-18T12:23:35.264Z,13.90
2023-02-18T12:26:36.023Z,13.90
2023-02-18T12:29:09.630Z,14.00
2023-02-18T12:31:48.390Z,14.10
2023-02-18T12:34:34.816Z,14.20
2023-02-18T12:37:49.018Z,14.40
2023-02-18T12:40:31.712Z,14.40
2023-02-18T12:43:04.169Z,14.40
2023-02-18T12:45:46.239Z,14.40
2023-02-18T12:48:27.943Z,14.50
2023-02-18T12:51:25.938Z,14.40
2023-02-18T12:54:07.361Z,14.40
2023-02-18T12:56:36.738Z,14.40
2023-02-18T12:59:15.310Z,14.40
2023-02-18T13:02:17.327Z,14.40
2023-02-18T13:05:04.787Z,14.40
2023-02-18T13:08:02.758Z,14.40
2023-02-18T13:10:49.586Z,14.40
2023-02-18T13:13:22.363Z,14.50
2023-02-18T13:15:53.573Z,14.50
2023-02-18T13:18:34.446Z,14.50
2023-02-18T13:21:06.650Z,14.60
2023-02-18T13:23:42.260Z,14.60
2023-02-18T13:26:13.843Z,14.60
2023-02-18T13:29:14.549Z,14.60
2023-02-18T13:32:03.940Z,14.70
2023-02-18T13:34:50.620Z,14.70
2023-02-18T13:37:26.578Z,14.70
2023-02-18T13:39:56.903Z,14.70
2023-02-18T13:42:32.400Z,14.60
2023-02-18T13:44:59.082Z,14.60
2023-02-18T13:47:42.470Z,14.60
2023-02-18T13:50:27.165Z,14.60
2023-02-18T13:53:14.673Z,14.60
2023-02-18T13:55:52.758Z,14.60
2023-02-18T13:58:27.485Z,14.60
2023-02-18T14:01:00.917Z,14.60
2023-02-18T14:03:30.663Z,14.60
2023-02-18T14:05:57.852Z,14.60
2023-02-18T14:08:34.891Z,14.60
2023-02-18T14:11:14.277Z,14.60
2023-02-18T14:14:14.424Z,14.60
2023-02-18T14:17:18.453Z,14.60
2023-02-18T14:20:00.200Z,14.40
2023-02-18T14:22:38.855Z,14.20
2023-02-18T14:25:08.476Z,14.10
2023-02-18T14:27:37.330Z,13.90
2023-02-18T14:30:28.185Z,13.80
2023-02-18T14:33:00.375Z,13.70
2023-02-18T14:35:42.219Z,13.80
2023-02-18T14:38:11.905Z,13.80
2023-02-18T14:41:14.902Z,13.70
2023-02-18T14:44:01.701Z,13.60
2023-02-18T14:46:48.325Z,13.60
2023-02-18T14:49:23.803Z,13.70
2023-02-18T14:51:53.030Z,13.70
2023-02-18T14:54:22.714Z,13.60
2023-02-18T14:57:14.893Z,13.70
2023-02-18T14:59:43.113Z,13.60
2023-02-18T15:02:27.445Z,13.50
2023-02-18T15:04:54.376Z,13.60
2023-02-18T15:07:22.612Z,13.70
2023-02-18T15:09:55.711Z,13.60
2023-02-18T15:12:25.716Z,13.70
2023-02-18T15:14:54.672Z,13.70
2023-02-18T15:17:24.769Z,13.70
2023-02-18T15:19:54.609Z,13.70
2023-02-18T15:22:23.874Z,13.70
2023-02-18T15:24:55.772Z,13.80
2023-02-18T15:27:35.379Z,13.80
2023-02-18T15:30:39.319Z,13.90
2023-02-18T15:33:13.675Z,13.90
2023-02-18T15:35:41.796Z,14.00
2023-02-18T15:38:17.720Z,14.00
2023-02-18T15:40:49.074Z,14.10
2023-02-18T15:43:20.872Z,14.10
2023-02-18T15:45:49.057Z,14.10
2023-02-18T15:48:33.360Z,14.10
2023-02-18T15:51:16.509Z,14.20
2023-02-18T15:53:47.489Z,14.20
2023-02-18T15:56:23.904Z,14.20
2023-02-18T15:58:50.629Z,14.10
2023-02-18T16:01:29.202Z,14.00
2023-02-18T16:03:56.630Z,13.90
2023-02-18T16:06:25.573Z,13.90
2023-02-18T16:09:03.168Z,13.80
2023-02-18T16:11:38.086Z,13.80
2023-02-18T16:14:08.064Z,13.80
2023-02-18T16:16:37.209Z,13.70
2023-02-18T16:19:04.300Z,13.70
2023-02-18T16:21:43.700Z,13.60
2023-02-18T16:24:29.120Z,13.60
2023-02-18T16:27:00.361Z,13.50
2023-02-18T16:29:43.647Z,13.50
2023-02-18T16:32:10.634Z,13.40
2023-02-18T16:34:37.430Z,13.40
2023-02-18T16:37:22.611Z,13.30
2023-02-18T16:39:51.963Z,13.30
2023-02-18T16:42:21.282Z,13.20
2023-02-18T16:44:49.989Z,13.20
2023-02-18T16:47:18.152Z,13.10
2023-02-18T16:49:51.064Z,13.10
2023-02-18T16:52:19.322Z,13.00
2023-02-18T16:54:48.185Z,13.00
2023-02-18T16:57:14.911Z,12.90
2023-02-18T16:59:41.614Z,12.90
2023-02-18T17:02:17.779Z,12.80
2023-02-18T17:04:44.463Z,12.80
2023-02-18T17:07:11.616Z,12.80
2023-02-18T17:09:38.368Z,12.80
2023-02-18T17:12:05.337Z,12.80
2023-02-18T17:14:32.306Z,12.70
2023-02-18T17:16:59.305Z,12.80
2023-02-18T17:19:25.993Z,12.80
2023-02-18T17:21:52.630Z,12.70
2023-02-18T17:24:19.377Z,12.70
2023-02-18T17:26:46.091Z,12.70
2023-02-18T17:29:13.815Z,12.70
2023-02-18T17:31:44.540Z,12.60
2023-02-18T17:34:18.818Z,12.60
2023-02-18T17:36:45.671Z,12.60
2023-02-18T17:39:14.191Z,12.60
2023-02-18T17:41:41.340Z,12.60
2023-02-18T17:44:22.731Z,12.60
2023-02-18T17:46:50.060Z,12.60
2023-02-18T17:49:17.027Z,12.50
2023-02-18T17:51:44.199Z,12.50
2023-02-18T17:54:19.427Z,12.50
2023-02-18T17:56:46.810Z,12.50
2023-02-18T17:59:13.765Z,12.50
2023-02-18T18:01:40.931Z,12.50
2023-02-18T18:04:15.601Z,12.40
2023-02-18T18:06:42.681Z,12.40
2023-02-18T18:09:09.887Z,12.30
2023-02-18T18:11:37.121Z,12.30
2023-02-18T18:14:03.935Z,12.30
2023-02-18T18:16:30.739Z,12.30
2023-02-18T18:18:57.438Z,12.30
2023-02-18T18:21:31.310Z,12.30
2023-02-18T18:23:58.083Z,12.30
2023-02-18T18:26:24.990Z,12.30
2023-02-18T18:28:51.708Z,12.30
2023-02-18T18:31:20.683Z,12.20
2023-02-18T18:33:50.536Z,12.20
2023-02-18T18:36:19.863Z,12.30
2023-02-18T18:38:46.632Z,12.30
2023-02-18T18:41:16.219Z,12.20
2023-02-18T18:43:42.962Z,12.30
2023-02-18T18:46:09.994Z,12.20
2023-02-18T18:48:36.872Z,12.20
2023-02-18T18:51:03.723Z,12.20
2023-02-18T18:53:33.551Z,12.10
2023-02-18T18:56:05.497Z,12.20
2023-02-18T18:58:32.881Z,12.20
2023-02-18T19:01:02.281Z,12.10
2023-02-18T19:03:29.872Z,12.10
2023-02-18T19:05:57.215Z,12.10
2023-02-18T19:08:23.960Z,12.10
2023-02-18T19:10:53.491Z,12.10
2023-02-18T19:13:23.553Z,12.00
2023-02-18T19:16:19.638Z,12.00
2023-02-18T19:18:46.737Z,12.00
2023-02-18T19:21:13.479Z,12.00
2023-02-18T19:23:40.802Z,12.00
2023-02-18T19:26:08.198Z,11.90
2023-02-18T19:28:35.112Z,11.90
2023-02-18T19:31:01.980Z,11.90
2023-02-18T19:33:28.805Z,11.90
2023-02-18T19:35:55.586Z,11.90
2023-02-18T19:38:22.354Z,11.90
2023-02-18T19:40:49.115Z,11.90
2023-02-18T19:43:16.049Z,11.80
2023-02-18T19:45:45.384Z,11.80
2023-02-18T19:48:13.641Z,11.80
2023-02-18T19:50:42.065Z,11.80
2023-02-18T19:53:10.038Z,11.70
2023-02-18T19:55:36.793Z,11.70
2023-02-18T19:58:03.553Z,11.70
2023-02-18T20:00:30.318Z,11.60
2023-02-18T20:02:57.115Z,11.60
2023-02-18T20:05:24.060Z,11.60
2023-02-18T20:07:50.778Z,11.60
2023-02-18T20:10:22.078Z,11.60
2023-02-18T20:12:53.597Z,11.50
2023-02-18T20:15:21.173Z,11.50
2023-02-18T20:17:48.041Z,11.40
2023-02-18T20:20:14.792Z,11.40
2023-02-18T20:22:41.664Z,11.40
2023-02-18T20:25:08.734Z,11.30
2023-02-18T20:27:37.529Z,11.30
2023-02-18T20:30:07.992Z,11.30
2023-02-18T20:32:35.950Z,11.30
2023-02-18T20:35:03.480Z,11.30
2023-02-18T20:37:30.482Z,11.40
2023-02-18T20:39:57.334Z,11.40
2023-02-18T20:42:24.045Z,11.40
2023-02-18T20:44:51.804Z,11.40
2023-02-18T20:47:18.615Z,11.40
2023-02-18T20:49:46.718Z,11.20
2023-02-18T20:52:13.937Z,11.30
2023-02-18T20:54:40.677Z,11.30
2023-02-18T20:57:08.974Z,11.30
2023-02-18T20:59:35.843Z,11.30
2023-02-18T21:02:02.644Z,11.30
2023-02-18T21:04:29.529Z,11.40
2023-02-18T21:06:56.332Z,11.40
2023-02-18T21:09:23.189Z,11.40
2023-02-18T21:11:49.988Z,11.40
2023-02-18T21:14:17.038Z,11.50
2023-02-18T21:16:43.923Z,11.50
2023-02-18T21:19:16.055Z,11.50
2023-02-18T21:21:44.431Z,11.50
2023-02-18T21:24:11.812Z,11.50
2023-02-18T21:26:39.233Z,11.50
2023-02-18T21:29:08.208Z,11.50
2023-02-18T21:31:37.799Z,11.50
2023-02-18T21:34:05.927Z,11.60
2023-02-18T21:36:33.519Z,11.60
2023-02-18T21:39:02.395Z,11.60
2023-02-18T21:41:30.394Z,11.60
2023-02-18T21:43:57.587Z,11.60
2023-02-18T21:46:26.937Z,11.60
2023-02-18T21:49:03.166Z,11.60
2023-02-18T21:51:50.617Z,11.60
2023-02-18T21:54:20.089Z,11.60
2023-02-18T21:56:47.667Z,11.60
2023-02-18T21:59:14.465Z,11.60
2023-02-18T22:01:41.448Z,11.60
2023-02-18T22:04:08.298Z,11.60
2023-02-18T22:06:35.118Z,11.60
2023-02-18T22:09:03.428Z,11.70
2023-02-18T22:11:30.945Z,11.60
2023-02-18T22:13:58.272Z,11.60
2023-02-18T22:16:28.071Z,11.70
2023-02-18T22:18:58.582Z,11.70
2023-02-18T22:21:25.739Z,11.70
2023-02-18T22:23:52.779Z,11.70
2023-02-18T22:26:19.808Z,11.70
2023-02-18T22:28:55.019Z,11.70
2023-02-18T22:31:23.106Z,11.70
2023-02-18T22:33:52.211Z,11.70
2023-02-18T22:36:20.811Z,11.70
2023-02-18T22:38:47.889Z,11.70
2023-02-18T22:41:17.526Z,11.70
2023-02-18T22:43:44.552Z,11.70
2023-02-18T22:46:14.082Z,11.60
2023-02-18T22:48:41.430Z,11.60
2023-02-18T22:51:11.434Z,11.60
2023-02-18T22:53:39.123Z,11.60
2023-02-18T22:56:08.815Z,11.60
2023-02-18T22:58:36.574Z,11.60
2023-02-18T23:01:04.536Z,11.60
2023-02-18T23:03:31.316Z,11.60
2023-02-18T23:06:02.916Z,11.60
2023-02-18T23:08:30.854Z,11.60
2023-02-18T23:11:06.359Z,11.60
2023-02-18T23:13:33.804Z,11.60
2023-02-18T23:16:06.777Z,11.60
2023-02-18T23:18:35.039Z,11.60
2023-02-18T23:21:18.167Z,11.50
2023-02-18T23:23:46.399Z,11.50
2023-02-18T23:26:13.889Z,11.50
2023-02-18T23:28:50.310Z,11.50
2023-02-18T23:31:27.884Z,11.50
2023-02-18T23:33:57.255Z,11.50
2023-02-18T23:36:29.733Z,11.50
2023-02-18T23:38:59.717Z,11.50
2023-02-18T23:41:27.509Z,11.50
2023-02-18T23:43:54.240Z,11.50
2023-02-18T23:46:23.206Z,11.50
2023-02-18T23:48:49.932Z,11.40
2023-02-18T23:51:19.559Z,11.40
2023-02-18T23:53:46.562Z,11.50
2023-02-18T23:56:25.363Z,11.40
2023-02-18T23:58:54.988Z,11.40
